createdAt,value
2023-05-23T00:01:40.967Z,2.17
2023-05-23T00:04:08.996Z,2.58
2023-05-23T00:06:36.293Z,1.88
2023-05-23T00:09:03.319Z,2.00
2023-05-23T00:11:31.195Z,2.20
2023-05-23T00:14:01.072Z,2.63
2023-05-23T00:16:28.279Z,1.83
2023-05-23T00:18:57.713Z,1.83
2023-05-23T00:21:24.813Z,1.90
2023-05-23T00:23:51.761Z,2.25
2023-05-23T00:26:18.573Z,2.40
2023-05-23T00:28:46.627Z,1.60
2023-05-23T00:31:13.580Z,2.63
2023-05-23T00:33:40.435Z,2.33
2023-05-23T00:36:07.545Z,2.20
2023-05-23T00:38:34.429Z,2.35
2023-05-23T00:41:02.411Z,2.22
2023-05-23T00:43:29.577Z,2.03
2023-05-23T00:45:56.698Z,1.98
2023-05-23T00:48:27.140Z,1.60
2023-05-23T00:50:55.481Z,1.83
2023-05-23T00:53:22.768Z,1.80
2023-05-23T00:55:50.074Z,1.80
2023-05-23T00:58:17.791Z,2.22
2023-05-23T01:00:49.849Z,2.75
2023-05-23T01:03:18.986Z,1.88
2023-05-23T01:05:46.100Z,1.83
2023-05-23T01:08:13.020Z,1.98
2023-05-23T01:10:40.078Z,2.58
2023-05-23T01:13:34.301Z,2.10
2023-05-23T01:16:26.226Z,2.03
2023-05-23T01:19:15.243Z,1.83
2023-05-23T01:21:44.729Z,3.38
2023-05-23T01:24:39.604Z,2.17
2023-05-23T01:27:20.450Z,2.13
2023-05-23T01:29:48.530Z,1.83
2023-05-23T01:32:17.107Z,1.65
2023-05-23T01:34:44.550Z,1.80
2023-05-23T01:37:14.700Z,2.17
2023-05-23T01:39:42.522Z,3.05
2023-05-23T01:42:09.741Z,1.95
2023-05-23T01:44:38.240Z,2.72
2023-05-23T01:47:08.317Z,2.20
2023-05-23T01:49:36.749Z,2.33
2023-05-23T01:52:04.898Z,1.83
2023-05-23T01:54:35.328Z,2.22
2023-05-23T01:57:03.107Z,2.00
2023-05-23T01:59:30.084Z,2.10
2023-05-23T02:01:57.785Z,2.13
2023-05-23T02:04:24.685Z,1.77
2023-05-23T02:06:51.716Z,1.77
2023-05-23T02:09:18.566Z,2.08
2023-05-23T02:11:45.636Z,2.17
2023-05-23T02:14:13.069Z,1.75
2023-05-23T02:16:40.107Z,2.38
2023-05-23T02:19:07.034Z,1.92
2023-05-23T02:21:35.450Z,1.90
2023-05-23T02:24:03.632Z,1.77
2023-05-23T02:26:30.712Z,2.03
2023-05-23T02:28:57.609Z,2.03
2023-05-23T02:31:25.118Z,2.30
2023-05-23T02:33:52.046Z,1.95
2023-05-23T02:36:18.995Z,1.85
2023-05-23T02:38:45.952Z,1.98
2023-05-23T02:41:12.863Z,2.10
2023-05-23T02:43:39.843Z,2.65
2023-05-23T02:46:06.983Z,2.50
2023-05-23T02:48:33.864Z,3.28
2023-05-23T02:51:00.806Z,3.03
2023-05-23T02:53:27.698Z,2.50
2023-05-23T02:55:54.869Z,2.97
2023-05-23T02:58:21.766Z,2.33
2023-05-23T03:00:48.707Z,3.03
2023-05-23T03:03:17.058Z,3.15
2023-05-23T03:05:44.297Z,3.53
2023-05-23T03:08:11.304Z,2.22
2023-05-23T03:10:38.225Z,2.38
2023-05-23T03:13:05.504Z,2.72
2023-05-23T03:15:32.495Z,2.42
2023-05-23T03:17:59.552Z,2.38
2023-05-23T03:20:26.553Z,2.25
2023-05-23T03:22:54.966Z,2.20
2023-05-23T03:25:23.495Z,1.85
2023-05-23T03:27:50.583Z,2.25
2023-05-23T03:30:17.694Z,3.50
2023-05-23T03:32:44.656Z,2.00
2023-05-23T03:35:11.730Z,1.52
2023-05-23T03:37:39.507Z,2.47
2023-05-23T03:40:07.477Z,2.10
2023-05-23T03:42:35.211Z,2.65
2023-05-23T03:45:02.199Z,1.92
2023-05-23T03:47:29.123Z,1.80
2023-05-23T03:49:58.560Z,2.88
2023-05-23T03:52:26.100Z,2.15
2023-05-23T03:54:53.060Z,2.53
2023-05-23T03:57:20.219Z,2.40
2023-05-23T03:59:47.471Z,1.98
2023-05-23T04:02:15.064Z,1.67
2023-05-23T04:04:42.245Z,1.55
2023-05-23T04:07:10.171Z,2.13
2023-05-23T04:09:38.820Z,2.00
2023-05-23T04:12:09.749Z,2.38
2023-05-23T04:14:37.500Z,2.15
2023-05-23T04:17:05.905Z,2.47
2023-05-23T04:19:33.638Z,2.78
2023-05-23T04:22:00.824Z,2.47
2023-05-23T04:24:27.937Z,2.53
2023-05-23T04:26:56.346Z,1.67
2023-05-23T04:29:26.214Z,3.13
2023-05-23T04:31:55.058Z,1.70
2023-05-23T04:34:22.518Z,2.50
2023-05-23T04:36:49.625Z,2.97
2023-05-23T04:39:16.766Z,1.98
2023-05-23T04:41:59.679Z,3.33
2023-05-23T04:44:45.164Z,2.45
2023-05-23T04:47:20.716Z,2.45
2023-05-23T04:50:03.071Z,3.30
2023-05-23T04:52:33.313Z,1.90
2023-05-23T04:55:01.325Z,2.20
2023-05-23T04:57:28.704Z,2.08
2023-05-23T04:59:57.113Z,1.67
2023-05-23T05:02:24.247Z,1.80
2023-05-23T05:04:51.389Z,2.72
2023-05-23T05:07:18.362Z,2.15
2023-05-23T05:09:45.542Z,2.78
2023-05-23T05:12:12.719Z,2.50
2023-05-23T05:14:40.515Z,2.28
2023-05-23T05:17:08.044Z,1.70
2023-05-23T05:19:55.250Z,2.67
2023-05-23T05:22:23.310Z,3.30
2023-05-23T05:24:50.141Z,2.05
2023-05-23T05:27:17.418Z,2.13
2023-05-23T05:29:44.829Z,3.22
2023-05-23T05:32:11.680Z,2.97
2023-05-23T05:34:38.584Z,2.17
2023-05-23T05:37:06.570Z,4.05
2023-05-23T05:39:33.514Z,2.45
2023-05-23T05:42:03.605Z,2.55
2023-05-23T05:44:30.577Z,2.53
2023-05-23T05:46:58.115Z,2.78
2023-05-23T05:49:25.283Z,1.70
2023-05-23T05:51:52.735Z,2.30
2023-05-23T05:54:19.580Z,2.30
2023-05-23T05:56:48.000Z,2.30
2023-05-23T05:59:15.612Z,2.55
2023-05-23T06:01:42.551Z,2.35
2023-05-23T06:04:09.544Z,1.83
2023-05-23T06:06:36.737Z,1.85
2023-05-23T06:09:03.811Z,2.03
2023-05-23T06:11:30.946Z,1.85
2023-05-23T06:13:58.022Z,2.55
2023-05-23T06:16:25.070Z,1.92
2023-05-23T06:18:52.110Z,2.53
2023-05-23T06:21:19.083Z,2.08
2023-05-23T06:26:16.486Z,1.63
2023-05-23T06:28:43.412Z,1.90
2023-05-23T06:31:10.563Z,2.00
2023-05-23T06:33:37.544Z,2.30
2023-05-23T06:36:04.540Z,2.10
2023-05-23T06:38:35.483Z,2.28
2023-05-23T06:41:03.848Z,1.98
2023-05-23T06:43:31.385Z,1.88
2023-05-23T06:46:13.083Z,2.30
2023-05-23T06:48:40.429Z,2.58
2023-05-23T06:51:07.338Z,2.42
2023-05-23T06:53:34.398Z,2.42
2023-05-23T06:56:01.689Z,2.33
2023-05-23T06:58:30.529Z,2.55
2023-05-23T07:00:58.923Z,2.58
2023-05-23T07:03:32.749Z,2.35
2023-05-23T07:06:04.514Z,2.00
2023-05-23T07:08:31.891Z,1.98
2023-05-23T07:11:00.427Z,2.20
2023-05-23T07:13:39.443Z,1.80
2023-05-23T07:16:06.702Z,2.17
2023-05-23T07:18:38.671Z,2.95
2023-05-23T07:21:06.128Z,1.80
2023-05-23T07:23:34.526Z,1.52
2023-05-23T07:26:03.279Z,1.17
2023-05-23T07:28:42.789Z,1.90
2023-05-23T07:31:10.048Z,1.52
2023-05-23T07:33:38.034Z,1.83
2023-05-23T07:36:06.238Z,2.90
2023-05-23T07:38:33.367Z,2.20
2023-05-23T07:41:10.940Z,1.73
2023-05-23T07:43:39.171Z,2.53
2023-05-23T07:46:06.564Z,2.22
2023-05-23T07:48:33.713Z,2.10
2023-05-23T07:51:01.135Z,1.92
2023-05-23T07:53:28.923Z,1.58
2023-05-23T07:55:56.783Z,1.92
2023-05-23T07:58:26.803Z,2.28
2023-05-23T08:00:53.839Z,1.30
2023-05-23T08:03:46.929Z,2.00
2023-05-23T08:06:20.692Z,1.77
2023-05-23T08:08:47.809Z,1.88
2023-05-23T08:11:15.612Z,1.55
2023-05-23T08:13:46.551Z,2.05
2023-05-23T08:16:32.004Z,2.17
2023-05-23T08:19:00.035Z,1.75
2023-05-23T08:21:28.309Z,1.92
2023-05-23T08:23:55.149Z,2.20
2023-05-23T08:26:23.042Z,1.42
2023-05-23T08:28:51.283Z,1.92
2023-05-23T08:31:18.807Z,1.83
2023-05-23T08:33:46.004Z,1.95
2023-05-23T08:36:13.390Z,2.25
2023-05-23T08:38:41.219Z,2.13
2023-05-23T08:41:24.922Z,2.25
2023-05-23T08:43:58.877Z,2.10
2023-05-23T08:46:31.277Z,2.20
2023-05-23T08:49:00.420Z,2.10
2023-05-23T08:51:29.601Z,1.95
2023-05-23T08:54:00.439Z,2.17
2023-05-23T08:56:29.272Z,2.90
2023-05-23T08:58:58.407Z,1.70
2023-05-23T09:01:27.822Z,1.98
2023-05-23T09:04:00.427Z,2.42
2023-05-23T09:06:37.132Z,2.05
2023-05-23T09:09:05.071Z,2.00
2023-05-23T09:11:36.023Z,2.33
2023-05-23T09:14:05.318Z,2.00
2023-05-23T09:16:36.888Z,2.17
2023-05-23T09:19:14.691Z,2.03
2023-05-23T09:21:46.898Z,2.08
2023-05-23T09:24:34.995Z,2.72
2023-05-23T09:27:03.253Z,2.10
2023-05-23T09:29:31.007Z,1.75
2023-05-23T09:32:14.519Z,2.35
2023-05-23T09:34:54.591Z,2.35
2023-05-23T09:37:31.278Z,1.95
2023-05-23T09:39:59.772Z,2.10
2023-05-23T09:42:33.024Z,1.95
2023-05-23T09:45:03.142Z,2.45
2023-05-23T09:47:31.248Z,2.47
2023-05-23T09:49:58.242Z,4.05
2023-05-23T09:52:26.115Z,2.55
2023-05-23T09:54:53.835Z,2.42
2023-05-23T09:57:23.527Z,2.05
2023-05-23T09:59:57.090Z,2.88
2023-05-23T10:02:54.572Z,2.40
2023-05-23T10:05:33.409Z,2.40
2023-05-23T10:08:03.245Z,2.67
2023-05-23T10:10:33.134Z,2.08
2023-05-23T10:13:06.166Z,3.30
2023-05-23T10:15:39.582Z,2.25
2023-05-23T10:18:12.694Z,2.35
2023-05-23T10:20:42.843Z,2.15
2023-05-23T10:25:37.936Z,2.53
2023-05-23T10:28:05.560Z,2.13
2023-05-23T10:30:33.387Z,2.20
2023-05-23T10:33:02.077Z,2.67
2023-05-23T10:36:05.079Z,2.35
2023-05-23T10:38:39.948Z,1.83
2023-05-23T10:41:11.355Z,2.20
2023-05-23T10:43:51.447Z,2.30
2023-05-23T10:46:22.215Z,2.58
2023-05-23T10:48:57.251Z,2.65
2023-05-23T10:51:24.987Z,1.98
2023-05-23T10:53:54.699Z,1.60
2023-05-23T10:56:23.844Z,2.33
2023-05-23T10:58:55.014Z,2.47
2023-05-23T11:01:22.808Z,2.17
2023-05-23T11:04:18.446Z,2.78
2023-05-23T11:06:45.056Z,2.17
2023-05-23T11:09:13.141Z,1.88
2023-05-23T11:12:10.042Z,2.65
2023-05-23T11:14:38.009Z,2.22
2023-05-23T11:17:13.925Z,2.03
2023-05-23T11:19:55.222Z,2.00
2023-05-23T11:22:27.316Z,1.83
2023-05-23T11:24:55.223Z,2.08
2023-05-23T11:27:39.924Z,2.58
2023-05-23T11:30:19.437Z,3.13
2023-05-23T11:32:54.860Z,1.70
2023-05-23T11:35:22.265Z,2.20
2023-05-23T11:37:49.537Z,1.80
2023-05-23T11:40:39.537Z,1.58
2023-05-23T11:43:11.503Z,2.97
2023-05-23T11:45:39.264Z,1.58
2023-05-23T11:48:11.652Z,1.73
2023-05-23T11:50:47.311Z,2.42
2023-05-23T11:53:17.612Z,2.10
2023-05-23T11:55:58.387Z,1.70
2023-05-23T11:58:36.448Z,2.67
2023-05-23T12:01:06.642Z,1.92
2023-05-23T12:03:35.355Z,2.15
2023-05-23T12:06:02.731Z,1.80
2023-05-23T12:08:29.704Z,2.67
2023-05-23T12:11:01.289Z,2.08
2023-05-23T12:13:31.535Z,2.42
2023-05-23T12:18:31.713Z,2.72
2023-05-23T12:21:03.679Z,1.80
2023-05-23T12:23:33.098Z,1.67
2023-05-23T12:26:04.960Z,2.20
2023-05-23T12:28:39.513Z,1.73
2023-05-23T12:31:27.388Z,2.33
2023-05-23T12:33:54.410Z,2.40
2023-05-23T12:36:32.224Z,2.17
2023-05-23T12:39:06.128Z,2.95
2023-05-23T12:41:33.739Z,2.42
2023-05-23T12:44:00.917Z,2.10
2023-05-23T12:46:28.187Z,1.92
2023-05-23T12:48:55.422Z,2.35
2023-05-23T12:51:22.355Z,2.38
2023-05-23T12:53:49.278Z,2.20
2023-05-23T12:56:16.229Z,2.53
2023-05-23T12:58:43.785Z,2.28
2023-05-23T13:01:11.456Z,2.58
2023-05-23T13:03:38.489Z,2.53
2023-05-23T13:06:06.746Z,3.22
2023-05-23T13:08:33.702Z,2.03
2023-05-23T13:11:00.839Z,2.47
2023-05-23T13:13:27.774Z,2.35
2023-05-23T13:15:54.902Z,2.33
2023-05-23T13:18:21.951Z,1.90
2023-05-23T13:20:48.833Z,3.08
2023-05-23T13:23:15.783Z,2.53
2023-05-23T13:25:43.122Z,3.38
2023-05-23T13:28:10.658Z,2.50
2023-05-23T13:30:37.573Z,3.00
2023-05-23T13:33:05.124Z,2.63
2023-05-23T13:35:32.067Z,2.70
2023-05-23T13:37:59.001Z,6.57
2023-05-23T13:40:25.983Z,2.83
2023-05-23T13:42:53.135Z,3.08
2023-05-23T13:45:22.590Z,2.55
2023-05-23T13:47:49.832Z,3.85
2023-05-23T13:50:17.259Z,2.58
2023-05-23T13:52:47.224Z,3.08
2023-05-23T13:55:16.493Z,2.88
2023-05-23T13:57:43.371Z,3.50
2023-05-23T14:00:11.546Z,2.70
2023-05-23T14:02:38.431Z,2.65
2023-05-23T14:05:07.298Z,2.60
2023-05-23T14:07:34.229Z,2.65
2023-05-23T14:10:01.232Z,2.33
2023-05-23T14:12:28.222Z,2.65
2023-05-23T14:14:55.065Z,2.45
2023-05-23T14:17:22.045Z,2.90
2023-05-23T14:19:48.997Z,2.00
2023-05-23T14:22:16.240Z,2.90
2023-05-23T14:24:43.189Z,2.85
2023-05-23T14:27:11.325Z,2.50
2023-05-23T14:29:38.930Z,2.72
2023-05-23T14:32:06.511Z,2.50
2023-05-23T14:34:33.541Z,2.75
2023-05-23T14:37:01.328Z,3.00
2023-05-23T14:39:29.119Z,2.38
2023-05-23T14:41:56.228Z,2.83
2023-05-23T14:44:23.368Z,3.17
2023-05-23T14:46:50.459Z,2.67
2023-05-23T14:49:17.935Z,2.83
2023-05-23T14:51:50.437Z,3.22
2023-05-23T14:54:19.099Z,2.75
2023-05-23T14:56:46.171Z,2.47
2023-05-23T14:59:13.235Z,3.22
2023-05-23T15:01:40.925Z,2.10
2023-05-23T15:04:09.568Z,2.88
2023-05-23T15:06:38.395Z,2.55
2023-05-23T15:09:05.693Z,2.35
2023-05-23T15:11:34.920Z,2.65
2023-05-23T15:14:02.068Z,2.57
2023-05-23T15:16:32.710Z,3.25
2023-05-23T15:19:00.238Z,2.33
2023-05-23T15:21:27.449Z,2.97
2023-05-23T15:23:54.797Z,3.45
2023-05-23T15:26:22.160Z,2.15
2023-05-23T15:28:49.063Z,3.22
2023-05-23T15:31:15.974Z,2.13
2023-05-23T15:33:43.234Z,2.55
2023-05-23T15:36:10.286Z,3.08
2023-05-23T15:38:37.110Z,3.72
2023-05-23T15:41:04.879Z,2.80
2023-05-23T15:43:32.702Z,2.28
2023-05-23T15:45:59.676Z,2.22
2023-05-23T15:48:26.620Z,1.88
2023-05-23T15:50:53.577Z,2.65
2023-05-23T15:53:20.891Z,2.33
2023-05-23T15:55:47.866Z,2.63
2023-05-23T15:58:15.145Z,2.67
2023-05-23T16:00:42.339Z,2.25
2023-05-23T16:03:09.496Z,2.83
2023-05-23T16:05:36.464Z,3.45
2023-05-23T16:08:03.421Z,2.88
2023-05-23T16:10:30.285Z,2.28
2023-05-23T16:12:57.150Z,2.40
2023-05-23T16:15:24.049Z,2.75
2023-05-23T16:17:50.969Z,3.40
2023-05-23T16:20:17.884Z,3.25
2023-05-23T16:22:45.906Z,3.05
2023-05-23T16:25:12.911Z,3.10
2023-05-23T16:27:40.622Z,2.85
2023-05-23T16:30:08.133Z,2.75
2023-05-23T16:32:35.244Z,2.80
2023-05-23T16:35:02.246Z,2.75
2023-05-23T16:37:29.111Z,2.97
2023-05-23T16:39:56.061Z,3.83
2023-05-23T16:42:22.882Z,2.92
2023-05-23T16:44:49.798Z,3.60
2023-05-23T16:47:17.142Z,2.63
2023-05-23T16:49:44.143Z,2.60
2023-05-23T16:52:11.350Z,2.63
2023-05-23T16:54:38.206Z,2.35
2023-05-23T16:57:05.679Z,3.72
2023-05-23T16:59:32.700Z,3.30
2023-05-23T17:01:59.739Z,2.55
2023-05-23T17:04:26.654Z,2.58
2023-05-23T17:06:53.674Z,2.85
2023-05-23T17:09:22.202Z,3.10
2023-05-23T17:11:50.148Z,3.33
2023-05-23T17:14:17.584Z,3.63
2023-05-23T17:16:44.610Z,3.30
2023-05-23T17:19:11.681Z,2.67
2023-05-23T17:21:38.684Z,2.90
2023-05-23T17:24:06.004Z,2.65
2023-05-23T17:26:32.898Z,3.22
2023-05-23T17:28:59.752Z,3.03
2023-05-23T17:31:29.000Z,3.15
2023-05-23T17:33:57.572Z,3.75
2023-05-23T17:36:24.538Z,2.67
2023-05-23T17:38:53.790Z,2.60
2023-05-23T17:41:23.190Z,2.35
2023-05-23T17:43:50.719Z,3.10
2023-05-23T17:46:20.168Z,2.53
2023-05-23T17:48:48.221Z,2.37
2023-05-23T17:51:15.824Z,2.88
2023-05-23T17:53:42.955Z,2.47
2023-05-23T17:56:10.600Z,2.30
2023-05-23T17:58:38.829Z,3.33
2023-05-23T18:01:06.936Z,2.55
2023-05-23T18:03:33.983Z,2.65
2023-05-23T18:06:00.887Z,3.45
2023-05-23T18:08:43.629Z,3.13
2023-05-23T18:11:10.509Z,2.50
2023-05-23T18:13:37.334Z,2.75
2023-05-23T18:16:04.315Z,3.15
2023-05-23T18:18:31.342Z,3.17
2023-05-23T18:20:58.300Z,2.97
2023-05-23T18:23:25.150Z,2.72
2023-05-23T18:25:52.598Z,2.47
2023-05-23T18:28:19.505Z,2.67
2023-05-23T18:30:46.381Z,3.65
2023-05-23T18:33:13.432Z,3.55
2023-05-23T18:35:40.630Z,4.47
2023-05-23T18:38:07.867Z,3.63
2023-05-23T18:40:34.707Z,4.05
2023-05-23T18:43:01.534Z,4.60
2023-05-23T18:45:28.616Z,3.45
2023-05-23T18:47:56.021Z,3.03
2023-05-23T18:50:23.707Z,3.13
2023-05-23T18:52:50.794Z,3.08
2023-05-23T18:55:17.707Z,2.58
2023-05-23T18:57:44.597Z,2.83
2023-05-23T19:00:12.097Z,2.97
2023-05-23T19:02:44.115Z,3.20
2023-05-23T19:05:12.628Z,2.45
2023-05-23T19:07:39.829Z,2.40
2023-05-23T19:10:07.131Z,2.80
2023-05-23T19:12:34.066Z,3.55
2023-05-23T19:15:01.232Z,3.38
2023-05-23T19:17:28.170Z,3.53
2023-05-23T19:19:55.213Z,3.53
2023-05-23T19:22:22.080Z,3.45
2023-05-23T19:24:49.271Z,2.78
2023-05-23T19:27:16.706Z,3.10
2023-05-23T19:29:44.390Z,3.38
2023-05-23T19:32:11.335Z,3.15
2023-05-23T19:34:38.296Z,3.22
2023-05-23T19:37:05.997Z,3.28
2023-05-23T19:39:32.808Z,3.92
2023-05-23T19:41:59.892Z,3.00
2023-05-23T19:44:27.018Z,3.17
2023-05-23T19:46:53.937Z,3.15
2023-05-23T19:49:20.996Z,3.38
2023-05-23T19:51:47.943Z,5.32
2023-05-23T19:54:15.439Z,3.47
2023-05-23T19:56:42.478Z,2.97
2023-05-23T19:59:09.502Z,3.67
2023-05-23T20:01:36.494Z,3.53
2023-05-23T20:04:03.643Z,3.35
2023-05-23T20:06:30.520Z,3.70
2023-05-23T20:08:57.437Z,4.47
2023-05-23T20:11:25.094Z,4.18
2023-05-23T20:13:51.969Z,3.88
2023-05-23T20:16:18.936Z,4.10
2023-05-23T20:18:45.954Z,3.78
2023-05-23T20:21:12.855Z,3.92
2023-05-23T20:23:43.359Z,3.85
2023-05-23T20:28:37.788Z,4.20
2023-05-23T20:31:04.720Z,4.30
2023-05-23T20:33:31.599Z,4.25
2023-05-23T20:35:59.260Z,3.75
2023-05-23T20:38:26.476Z,3.85
2023-05-23T20:40:53.515Z,3.85
2023-05-23T20:43:22.269Z,3.65
2023-05-23T20:45:49.259Z,4.28
2023-05-23T20:48:16.326Z,3.80
2023-05-23T20:50:43.973Z,3.80
2023-05-23T20:53:11.316Z,4.72
2023-05-23T20:55:38.157Z,4.05
2023-05-23T20:58:05.219Z,4.20
2023-05-23T21:00:32.131Z,4.07
2023-05-23T21:02:59.137Z,3.90
2023-05-23T21:05:26.417Z,4.38
2023-05-23T21:07:53.230Z,4.57
2023-05-23T21:10:20.059Z,4.45
2023-05-23T21:12:50.228Z,3.88
2023-05-23T21:15:18.044Z,4.40
2023-05-23T21:17:45.354Z,6.35
2023-05-23T21:20:13.283Z,4.05
2023-05-23T21:22:40.649Z,4.65
2023-05-23T21:25:07.783Z,5.00
2023-05-23T21:27:34.721Z,5.15
2023-05-23T21:30:01.706Z,4.85
2023-05-23T21:32:29.175Z,4.95
2023-05-23T21:34:56.377Z,5.15
2023-05-23T21:37:23.270Z,5.30
2023-05-23T21:39:51.987Z,5.63
2023-05-23T21:42:20.561Z,5.45
2023-05-23T21:44:47.435Z,6.50
2023-05-23T21:47:14.326Z,5.50
2023-05-23T21:49:41.245Z,6.03
2023-05-23T21:52:08.173Z,5.38
2023-05-23T21:54:35.058Z,5.90
2023-05-23T21:57:02.003Z,5.90
2023-05-23T21:59:28.964Z,5.00
2023-05-23T22:01:56.101Z,6.25
2023-05-23T22:04:23.138Z,5.65
2023-05-23T22:06:50.045Z,5.32
2023-05-23T22:09:16.990Z,5.63
2023-05-23T22:11:44.356Z,4.72
2023-05-23T22:14:11.290Z,4.68
2023-05-23T22:16:39.395Z,4.43
2023-05-23T22:19:06.953Z,4.28
2023-05-23T22:21:33.831Z,5.28
2023-05-23T22:24:00.806Z,4.95
2023-05-23T22:26:28.118Z,4.10
2023-05-23T22:28:55.302Z,4.10
2023-05-23T22:31:23.802Z,4.15
2023-05-23T22:33:51.295Z,4.18
2023-05-23T22:36:18.498Z,4.43
2023-05-23T22:38:45.779Z,4.80
2023-05-23T22:41:12.681Z,3.80
2023-05-23T22:43:39.934Z,4.10
2023-05-23T22:46:07.089Z,4.97
2023-05-23T22:48:34.237Z,3.97
2023-05-23T22:51:02.406Z,4.00
2023-05-23T22:53:30.327Z,4.32
2023-05-23T22:55:57.572Z,4.38
2023-05-23T22:58:24.457Z,4.90
2023-05-23T23:00:51.467Z,4.40
2023-05-23T23:03:18.620Z,4.75
2023-05-23T23:05:46.364Z,4.57
2023-05-23T23:08:13.413Z,4.25
2023-05-23T23:10:41.767Z,4.55
2023-05-23T23:13:09.002Z,4.53
2023-05-23T23:15:37.029Z,4.05
2023-05-23T23:18:05.932Z,4.40
2023-05-23T23:20:33.376Z,5.32
2023-05-23T23:23:00.413Z,4.32
2023-05-23T23:25:27.364Z,5.32
2023-05-23T23:27:54.244Z,4.20
2023-05-23T23:30:21.419Z,4.63
2023-05-23T23:32:48.612Z,4.22
2023-05-23T23:35:15.768Z,4.43
2023-05-23T23:37:42.609Z,3.33
2023-05-23T23:40:10.079Z,4.43
2023-05-23T23:42:36.978Z,4.18
2023-05-23T23:45:04.801Z,4.40
2023-05-23T23:47:32.628Z,3.50
2023-05-23T23:49:59.556Z,3.45
2023-05-23T23:52:28.060Z,3.78
2023-05-23T23:54:55.066Z,3.75
2023-05-23T23:57:22.015Z,4.72
2023-05-23T23:59:49.050Z,3.90
